Jinan, China
Current Conditions -  °F | °C
As of 9:00 AM on Sunday 21 Dec 2014 (Local Time) from ZSJN Reporting Station
Clear Clear  
Wind Chill: 17°   Ceiling: Unl
Heat Index: 23°   Visibility: 4mi
Dew Point:   Wind: 4mph
Humidity: 50%   Direction: 260°W
Pressure: 30.5"   Gusts: NA
Location:  36.67°N, 117°E
Report Text: ZSJN 210100Z 26002MPS 6000 NSC M05/M14 Q1033 NOSIG
Loading
Personal Weather Stations






























Interactive Weather Map New forecast layout! Learn more

10-Day Weather Forecast

Advertisements
Track Severe Weather on mobile